Time;durP1;ratioP1;P1;durP2;ratioP2;P2;SDS_P1;SDS_P2;PMS_P1;PMS_P2;Temp;Humidity;BMP_temperature;BMP_pressure;BME280_temperature;BME280_humidity;BME280_pressure;Samples;Min_cycle;Max_cycle;Signal;HPM_P1;HPM_P2
2021/09/15 09:35:01;;;;;;;13.55;12.15;;;;;;;;;;5048959;23;20061;-79
2021/09/15 09:37:27;;;;;;;15.73;13.35;;;;;;;;;;4994202;28;20035;-80
2021/09/15 09:39:55;;;;;;;14.63;13.27;;;;;;;;;;4994381;28;20157;-82
2021/09/15 09:42:23;;;;;;;14.77;13.02;;;;;;;;;;4994461;28;20023;-78
2021/09/15 09:44:53;;;;;;;15.00;13.60;;;;;;;;;;4994171;28;20035;-80
2021/09/15 09:47:20;;;;;;;13.63;12.20;;;;;;;;;;4994250;28;20022;-78
2021/09/15 09:50:01;;;;;;;13.90;12.45;;;;;;;;;;4994138;28;20064;-81
2021/09/15 09:52:27;;;;;;;14.93;13.32;;;;;;;;;;4976508;28;20033;-83
2021/09/15 09:55:04;;;;;;;13.60;12.23;;;;;;;;;;4976670;28;20484;-81
2021/09/15 09:57:30;;;;;;;15.18;13.60;;;;;;;;;;4976568;28;20030;-83
2021/09/15 09:59:57;;;;;;;13.82;12.23;;;;;;;;;;4994144;28;20037;-85
2021/09/15 10:02:24;;;;;;;17.40;12.43;;;;;;;;;;4976540;28;20022;-83
2021/09/15 10:04:49;;;;;;;13.85;12.35;;;;;;;;;;4994369;28;20065;-78
2021/09/15 10:07:16;;;;;;;13.90;12.40;;;;;;;;;;4994169;28;20054;-84
2021/09/15 10:09:44;;;;;;;16.88;13.90;;;;;;;;;;4994196;28;20125;-84
2021/09/15 10:12:13;;;;;;;21.17;14.07;;;;;;;;;;4993793;28;20029;-83
2021/09/15 10:14:39;;;;;;;15.60;14.10;;;;;;;;;;4993922;28;20476;-81
2021/09/15 10:17:14;;;;;;;18.67;13.52;;;;;;;;;;4993937;28;20031;-86
2021/09/15 10:19:43;;;;;;;16.33;14.25;;;;;;;;;;4993931;28;20077;-86
2021/09/15 10:22:09;;;;;;;;;;;;;;;;;;4994327;28;20027;-83
2021/09/15 10:25:03;;;;;;;15.45;13.60;;;;;;;;;;4994098;28;19910;-83
2021/09/15 10:27:31;;;;;;;16.60;13.02;;;;;;;;;;4993970;28;20018;-84
2021/09/15 10:30:13;;;;;;;14.15;12.02;;;;;;;;;;4993769;28;20031;-84
2021/09/15 10:32:44;;;;;;;14.18;12.77;;;;;;;;;;4995222;28;20110;-81
2021/09/15 10:35:10;;;;;;;14.63;13.00;;;;;;;;;;4997151;28;20046;-85
2021/09/15 10:37:36;;;;;;;16.75;13.48;;;;;;;;;;4997363;28;20029;-84
2021/09/15 10:40:09;;;;;;;14.68;13.18;;;;;;;;;;4993709;28;20030;-80
2021/09/15 10:42:48;;;;;;;14.02;12.15;;;;;;;;;;5017277;28;20104;-81
2021/09/15 10:45:23;;;;;;;14.15;12.77;;;;;;;;;;4999318;28;20485;-82
2021/09/15 10:47:59;;;;;;;13.80;12.50;;;;;;;;;;4999286;28;20085;-85
2021/09/15 10:50:28;;;;;;;14.60;11.70;;;;;;;;;;5016993;28;20057;-86
2021/09/15 10:53:14;;;;;;;14.38;12.88;;;;;;;;;;5016980;28;20044;-83
2021/09/15 10:55:54;;;;;;;15.40;13.30;;;;;;;;;;5016228;28;20124;-86
2021/09/15 10:58:25;;;;;;;15.18;13.43;;;;;;;;;;5016910;28;20021;-85
2021/09/15 11:00:58;;;;;;;14.57;12.90;;;;;;;;;;5016658;28;20030;-85
2021/09/15 11:03:34;;;;;;;16.52;14.75;;;;;;;;;;5018872;28;20026;-87
2021/09/15 11:06:06;;;;;;;16.58;14.95;;;;;;;;;;5019314;28;20022;-87
2021/09/15 11:08:39;;;;;;;17.17;15.35;;;;;;;;;;5019563;28;20022;-86
2021/09/15 11:11:09;;;;;;;16.75;15.07;;;;;;;;;;5018380;28;20065;-88
2021/09/15 11:13:35;;;;;;;17.20;15.55;;;;;;;;;;5016555;28;20029;-88
2021/09/15 11:16:22;;;;;;;17.08;14.57;;;;;;;;;;5016943;28;20030;-88
2021/09/15 11:18:55;;;;;;;14.20;12.73;;;;;;;;;;5016749;28;20025;-88
2021/09/15 11:21:20;;;;;;;14.82;13.23;;;;;;;;;;5011144;28;20027;-89
2021/09/15 11:23:46;;;;;;;14.23;12.82;;;;;;;;;;4997046;28;20496;-88
2021/09/15 11:26:11;;;;;;;13.98;12.50;;;;;;;;;;4979405;28;20460;-87
2021/09/15 11:28:37;;;;;;;14.93;13.43;;;;;;;;;;4997123;28;20025;-89
2021/09/15 11:31:03;;;;;;;16.83;14.27;;;;;;;;;;4997226;28;20037;-88
2021/09/15 11:33:38;;;;;;;13.85;12.48;;;;;;;;;;4979513;28;20030;-84
2021/09/15 11:36:06;;;;;;;13.77;12.48;;;;;;;;;;4996295;28;20046;-84
2021/09/15 11:38:35;;;;;;;13.68;11.80;;;;;;;;;;4996412;28;20041;-83
2021/09/15 11:41:18;;;;;;;14.00;12.00;;;;;;;;;;4996255;28;20105;-84
2021/09/15 11:43:46;;;;;;;12.48;11.27;;;;;;;;;;4996137;28;20037;-84
2021/09/15 11:46:13;;;;;;;14.70;12.10;;;;;;;;;;4996387;28;20482;-84
2021/09/15 17:34:16;;;;;;;13.60;9.63;;;;;;;;;;5088124;23;20053;-81
2021/09/15 17:36:41;;;;;;;11.43;8.43;;;;;;;;;;4974921;28;20035;-80
2021/09/15 17:39:07;;;;;;;12.07;9.23;;;;;;;;;;4975069;28;20377;-79
2021/09/15 17:41:32;;;;;;;15.88;9.73;;;;;;;;;;4974538;28;20385;-82
2021/09/15 17:43:58;;;;;;;16.73;9.90;;;;;;;;;;4974611;28;20051;-79
2021/09/15 17:46:23;;;;;;;12.55;9.05;;;;;;;;;;4975003;28;20077;-78
2021/09/15 17:48:49;;;;;;;17.15;8.88;;;;;;;;;;4957452;28;20500;-84
2021/09/15 17:51:18;;;;;;;12.80;8.93;;;;;;;;;;4975025;28;20036;-78
2021/09/15 17:53:43;;;;;;;13.70;9.45;;;;;;;;;;4989416;28;20029;-79
2021/09/15 17:56:09;;;;;;;12.20;7.70;;;;;;;;;;4994126;28;20038;-79
2021/09/15 17:58:36;;;;;;;13.50;8.90;;;;;;;;;;4994216;28;20037;-79
2021/09/15 18:01:01;;;;;;;13.00;8.52;;;;;;;;;;4993961;28;20026;-80
2021/09/15 18:03:26;;;;;;;11.57;8.57;;;;;;;;;;4994570;28;20026;-80
2021/09/15 18:05:52;;;;;;;14.52;8.93;;;;;;;;;;4993984;28;20023;-78
2021/09/15 18:08:17;;;;;;;8.48;7.63;;;;;;;;;;4957486;28;20470;-83
2021/09/15 18:10:45;;;;;;;11.48;9.32;;;;;;;;;;4957180;28;20027;-85
2021/09/15 18:13:10;;;;;;;14.27;9.48;;;;;;;;;;4974529;28;20026;-78
2021/09/15 18:15:36;;;;;;;12.40;8.27;;;;;;;;;;4974758;28;20027;-79
2021/09/15 18:18:01;;;;;;;10.27;7.20;;;;;;;;;;4974742;28;20397;-80
2021/09/15 18:20:27;;;;;;;10.13;7.97;;;;;;;;;;4974316;28;20031;-79
2021/09/15 18:22:52;;;;;;;11.32;7.35;;;;;;;;;;4974843;28;20023;-82
2021/09/15 18:25:18;;;;;;;14.13;7.75;;;;;;;;;;4977686;28;20093;-83
2021/09/15 18:27:43;;;;;;;13.57;8.18;;;;;;;;;;4994112;28;20543;-84
2021/09/15 18:30:09;;;;;;;17.83;7.40;;;;;;;;;;4976764;28;20026;-80
2021/09/15 18:32:35;;;;;;;16.95;6.38;;;;;;;;;;4997129;28;20054;-84
2021/09/15 18:35:00;;;;;;;19.75;6.38;;;;;;;;;;4993905;28;20519;-84
2021/09/15 18:37:26;;;;;;;26.02;7.15;;;;;;;;;;4994084;28;20473;-83
2021/09/15 18:40:02;;;;;;;20.73;6.00;;;;;;;;;;4994178;28;20400;-84
2021/09/15 18:42:27;;;;;;;23.00;6.90;;;;;;;;;;5052741;23;20073;-84
2021/09/15 18:44:53;;;;;;;25.17;7.13;;;;;;;;;;4994030;28;20065;-84
2021/09/15 18:47:19;;;;;;;18.02;6.32;;;;;;;;;;4976190;28;20027;-85
2021/09/15 18:49:44;;;;;;;20.48;6.85;;;;;;;;;;4993821;28;20026;-83
2021/09/15 18:52:10;;;;;;;21.00;7.28;;;;;;;;;;4993654;28;20022;-83
2021/09/15 18:55:20;;;;;;;;;;;;;;;;;;;;;
2021/09/15 18:57:58;;;;;;;16.27;5.45;;;;;;;;;;5015349;28;20113;-84
2021/09/15 19:00:24;;;;;;;19.42;5.80;;;;;;;;;;5011078;28;20026;-83
2021/09/15 19:02:50;;;;;;;15.13;5.70;;;;;;;;;;4988508;28;20376;-82
2021/09/15 19:05:16;;;;;;;18.88;6.25;;;;;;;;;;5002082;28;20162;-82
2021/09/15 19:07:43;;;;;;;15.32;5.90;;;;;;;;;;4997586;28;20038;-77
2021/09/15 19:10:09;;;;;;;18.33;6.03;;;;;;;;;;4996938;28;20064;-80
2021/09/15 19:12:35;;;;;;;19.40;5.70;;;;;;;;;;4997003;28;20063;-81
2021/09/15 19:15:03;;;;;;;17.35;6.55;;;;;;;;;;4997130;28;20033;-81
2021/09/15 19:17:29;;;;;;;17.58;6.18;;;;;;;;;;4979545;28;20031;-79
2021/09/15 19:19:55;;;;;;;17.38;6.32;;;;;;;;;;4979400;28;20077;-80
2021/09/15 19:22:22;;;;;;;16.10;6.15;;;;;;;;;;4979134;28;20468;-83
2021/09/15 19:24:48;;;;;;;18.45;6.25;;;;;;;;;;4996977;28;20037;-80
2021/09/15 19:27:15;;;;;;;13.45;6.53;;;;;;;;;;4979460;28;20473;-80
2021/09/15 19:29:41;;;;;;;14.30;5.68;;;;;;;;;;4996927;28;20026;-80
2021/09/15 19:32:07;;;;;;;14.10;6.00;;;;;;;;;;4996805;28;20034;-80
2021/09/15 19:34:34;;;;;;;17.00;6.97;;;;;;;;;;4996709;28;20121;-80
2021/09/15 19:37:02;;;;;;;9.82;5.60;;;;;;;;;;4996626;28;20392;-80
2021/09/15 19:39:29;;;;;;;13.27;5.97;;;;;;;;;;4996638;28;20019;-80
2021/09/15 19:41:58;;;;;;;16.17;6.28;;;;;;;;;;4978732;28;20042;-79
2021/09/15 19:44:25;;;;;;;11.25;5.63;;;;;;;;;;4995017;28;20101;-78
2021/09/15 19:46:52;;;;;;;14.60;6.95;;;;;;;;;;4996285;28;20014;-80
2021/09/15 19:49:19;;;;;;;15.52;6.95;;;;;;;;;;4995944;28;20377;-81
2021/09/15 19:51:45;;;;;;;16.52;5.85;;;;;;;;;;4996131;28;20029;-81
2021/09/15 19:54:14;;;;;;;16.38;6.68;;;;;;;;;;4996060;28;20118;-81
2021/09/15 19:56:40;;;;;;;13.73;6.55;;;;;;;;;;4996212;28;20026;-81
2021/09/15 19:59:06;;;;;;;14.95;7.15;;;;;;;;;;4996136;28;20154;-80
2021/09/15 20:01:32;;;;;;;13.10;5.80;;;;;;;;;;4995901;28;20026;-80
2021/09/15 20:03:58;;;;;;;14.30;6.30;;;;;;;;;;4995647;28;20049;-80
2021/09/15 20:06:25;;;;;;;16.58;6.82;;;;;;;;;;4995945;28;20027;-79
2021/09/15 20:08:52;;;;;;;12.82;6.68;;;;;;;;;;5000887;28;20025;-80
2021/09/15 20:11:18;;;;;;;17.73;6.90;;;;;;;;;;4998207;28;20088;-79
2021/09/15 20:14:27;;;;;;;14.65;6.35;;;;;;;;;;4995734;28;20113;-79
2021/09/15 20:17:11;;;;;;;13.68;6.68;;;;;;;;;;4995617;28;20030;-80
2021/09/15 20:20:05;;;;;;;13.48;7.68;;;;;;;;;;4995431;28;20038;-80
2021/09/15 20:22:36;;;;;;;21.48;6.90;;;;;;;;;;4966362;28;20077;-79
2021/09/15 20:25:06;;;;;;;15.05;6.78;;;;;;;;;;4951444;28;20117;-80
2021/09/15 20:27:32;;;;;;;15.93;6.80;;;;;;;;;;5000420;28;20023;-79
2021/09/15 20:29:59;;;;;;;12.85;6.45;;;;;;;;;;5003557;28;20025;-79
2021/09/15 20:32:25;;;;;;;16.10;7.05;;;;;;;;;;4998661;28;20029;-79
2021/09/15 20:34:51;;;;;;;15.90;6.65;;;;;;;;;;5015332;28;20033;-78
2021/09/15 20:37:17;;;;;;;12.73;6.80;;;;;;;;;;5024179;28;20026;-78
2021/09/15 20:39:46;;;;;;;14.63;6.78;;;;;;;;;;5024143;28;20088;-79
2021/09/15 20:42:12;;;;;;;22.15;6.93;;;;;;;;;;5003414;28;20042;-79
2021/09/15 20:44:40;;;;;;;15.05;7.10;;;;;;;;;;4995946;28;20109;-78
2021/09/15 20:47:07;;;;;;;12.77;6.88;;;;;;;;;;4994674;28;20109;-78
2021/09/15 20:49:34;;;;;;;17.45;7.10;;;;;;;;;;4977968;28;20041;-78
2021/09/15 20:52:02;;;;;;;16.65;6.80;;;;;;;;;;4994930;28;20030;-78
2021/09/15 20:54:28;;;;;;;16.27;7.50;;;;;;;;;;4977508;28;20030;-78
2021/09/15 20:56:54;;;;;;;16.85;6.82;;;;;;;;;;4995302;28;20033;-80
2021/09/15 20:59:19;;;;;;;16.23;7.03;;;;;;;;;;4995232;28;20084;-79
2021/09/15 21:01:45;;;;;;;13.30;6.70;;;;;;;;;;4994785;28;20494;-78
2021/09/15 21:04:11;;;;;;;14.55;6.65;;;;;;;;;;4994945;28;20033;-78
2021/09/15 21:06:37;;;;;;;13.73;6.80;;;;;;;;;;4977574;28;20030;-78
2021/09/15 21:09:03;;;;;;;14.73;7.15;;;;;;;;;;4994805;28;20026;-80
2021/09/15 21:11:29;;;;;;;16.17;6.68;;;;;;;;;;4994952;28;20045;-81
2021/09/15 21:13:55;;;;;;;16.17;6.75;;;;;;;;;;4994778;28;20475;-79
2021/09/15 21:16:20;;;;;;;14.50;6.75;;;;;;;;;;4994288;28;20027;-80
2021/09/15 21:18:45;;;;;;;14.65;6.65;;;;;;;;;;4994579;28;20038;-78
2021/09/15 21:21:11;;;;;;;12.48;7.10;;;;;;;;;;4994616;28;20464;-78
2021/09/15 21:23:36;;;;;;;19.95;7.88;;;;;;;;;;4994778;28;20057;-80
2021/09/15 21:26:04;;;;;;;17.85;7.57;;;;;;;;;;4994854;28;20030;-80
2021/09/15 21:28:30;;;;;;;11.90;6.40;;;;;;;;;;4994619;28;20069;-80
2021/09/15 21:30:55;;;;;;;12.32;6.65;;;;;;;;;;4994559;28;20417;-81
2021/09/15 21:33:21;;;;;;;15.25;6.80;;;;;;;;;;4994471;28;20034;-80
2021/09/15 21:35:46;;;;;;;14.10;6.90;;;;;;;;;;4994966;28;20038;-79
2021/09/15 21:38:11;;;;;;;12.73;6.38;;;;;;;;;;4994335;28;20030;-81
2021/09/15 21:40:37;;;;;;;15.75;6.80;;;;;;;;;;4994622;28;20118;-80
2021/09/15 21:43:03;;;;;;;16.27;7.03;;;;;;;;;;4994513;28;20061;-80
2021/09/15 21:45:32;;;;;;;15.00;7.03;;;;;;;;;;4994766;28;20396;-81
2021/09/15 21:47:58;;;;;;;13.27;6.50;;;;;;;;;;4994199;28;20026;-80
2021/09/15 21:50:24;;;;;;;12.43;6.65;;;;;;;;;;4994430;28;20036;-81
2021/09/15 21:52:49;;;;;;;13.63;6.70;;;;;;;;;;4994463;28;20034;-80
2021/09/15 21:55:15;;;;;;;14.40;6.45;;;;;;;;;;4994379;28;20452;-80
2021/09/15 21:57:40;;;;;;;13.98;7.10;;;;;;;;;;4994216;28;20130;-81
2021/09/15 22:00:13;;;;;;;17.17;7.50;;;;;;;;;;4994402;28;20030;-80
2021/09/15 22:02:38;;;;;;;14.50;6.90;;;;;;;;;;4994035;28;20038;-81
